Time;durP1;ratioP1;P1;durP2;ratioP2;P2;SDS_P1;SDS_P2;PMS_P1;PMS_P2;Temp;Humidity;BMP_temperature;BMP_pressure;BME280_temperature;BME280_humidity;BME280_pressure;Samples;Min_cycle;Max_cycle;Signal;HPM_P1;HPM_P2
2023/05/02 00:02:05;;;;;;;9.27;8.37;;;23.90;42.50;;;;;;4950197;29;20846;-76
2023/05/02 00:04:34;;;;;;;10.50;8.73;;;23.90;42.50;;;;;;4944361;29;20494;-77
2023/05/02 00:07:02;;;;;;;10.33;9.10;;;23.90;42.50;;;;;;4947763;29;20448;-77
2023/05/02 00:09:30;;;;;;;10.20;8.77;;;23.80;42.60;;;;;;4945677;29;20451;-77
2023/05/02 00:11:58;;;;;;;9.93;8.93;;;23.80;42.60;;;;;;4956227;29;20463;-77
2023/05/02 00:14:26;;;;;;;11.20;8.57;;;23.80;42.70;;;;;;4949034;29;20960;-78
2023/05/02 00:16:55;;;;;;;9.53;8.53;;;23.80;42.80;;;;;;4955164;29;20536;-78
2023/05/02 00:19:23;;;;;;;10.07;8.40;;;23.80;42.70;;;;;;4957231;29;20417;-78
2023/05/02 00:21:52;;;;;;;9.93;8.13;;;23.80;42.80;;;;;;4944073;29;20468;-78
2023/05/02 00:24:20;;;;;;;8.80;8.00;;;23.80;42.80;;;;;;4951351;29;20449;-79
2023/05/02 00:26:49;;;;;;;10.50;8.50;;;23.80;42.80;;;;;;4950599;29;20447;-79
2023/05/02 00:29:17;;;;;;;8.90;7.90;;;23.70;42.80;;;;;;4957442;28;20439;-78
2023/05/02 00:31:45;;;;;;;10.67;8.80;;;23.70;42.90;;;;;;4955932;29;20478;-77
2023/05/02 00:34:13;;;;;;;7.97;7.27;;;23.80;43.60;;;;;;4945174;29;20452;-78
2023/05/02 00:36:40;;;;;;;9.67;8.57;;;23.70;43.00;;;;;;4947220;29;20426;-77
2023/05/02 00:39:10;;;;;;;9.60;8.13;;;23.70;43.00;;;;;;4946907;29;20431;-78
2023/05/02 00:41:38;;;;;;;11.70;8.40;;;23.70;43.00;;;;;;4942041;29;20480;-78
2023/05/02 00:44:07;;;;;;;9.73;8.00;;;23.70;43.00;;;;;;4948536;29;20468;-78
2023/05/02 00:46:35;;;;;;;8.20;7.40;;;23.70;43.10;;;;;;4942461;29;20448;-78
2023/05/02 00:49:03;;;;;;;9.27;7.80;;;23.70;43.00;;;;;;4940019;29;20447;-77
2023/05/02 00:51:32;;;;;;;11.90;8.10;;;23.70;43.20;;;;;;4957039;29;20442;-79
2023/05/02 00:54:00;;;;;;;8.73;7.70;;;23.60;43.10;;;;;;4952905;29;20451;-78
2023/05/02 00:56:30;;;;;;;8.23;7.37;;;23.60;43.10;;;;;;4951447;29;20531;-77
2023/05/02 00:58:58;;;;;;;9.00;7.43;;;23.60;43.20;;;;;;4951878;29;20456;-77
2023/05/02 01:01:44;;;;;;;8.30;7.50;;;23.50;43.20;;;;;;4946318;29;20472;-78
2023/05/02 01:04:19;;;;;;;19.43;7.90;;;23.50;43.30;;;;;;4946594;29;20546;-78
2023/05/02 01:06:53;;;;;;;9.00;8.10;;;23.50;43.20;;;;;;4949339;29;20442;-78
2023/05/02 01:09:26;;;;;;;9.00;7.50;;;23.50;43.40;;;;;;4954684;29;21023;-78
2023/05/02 01:12:01;;;;;;;11.20;7.00;;;23.50;43.40;;;;;;4939306;29;20475;-78
2023/05/02 01:14:30;;;;;;;12.73;8.57;;;23.50;43.30;;;;;;4945594;29;20472;-78
2023/05/02 01:16:58;;;;;;;7.87;7.20;;;23.40;43.30;;;;;;4944876;29;20455;-79
2023/05/02 01:19:29;;;;;;;11.90;7.43;;;23.40;43.40;;;;;;4945349;29;20447;-78
2023/05/02 01:21:58;;;;;;;9.13;7.60;;;23.40;43.30;;;;;;4940474;28;20471;-77
2023/05/02 01:24:27;;;;;;;8.03;7.23;;;23.40;43.50;;;;;;4953677;29;20506;-79
2023/05/02 01:27:01;;;;;;;8.70;7.23;;;23.40;43.50;;;;;;4940232;29;20443;-78
2023/05/02 01:29:31;;;;;;;9.50;7.83;;;23.30;43.40;;;;;;4949709;29;20421;-79
2023/05/02 01:31:59;;;;;;;8.33;7.10;;;23.30;43.40;;;;;;4953789;29;20470;-78
2023/05/02 01:34:27;;;;;;;10.23;7.13;;;23.30;43.60;;;;;;4954533;29;20514;-77
2023/05/02 01:36:55;;;;;;;8.20;7.10;;;23.30;43.60;;;;;;4955088;29;20422;-78
2023/05/02 01:39:25;;;;;;;8.77;6.57;;;23.30;43.60;;;;;;4947597;29;20533;-79
2023/05/02 01:41:54;;;;;;;8.53;7.67;;;23.30;43.60;;;;;;4947020;29;20471;-77
2023/05/02 01:44:23;;;;;;;7.80;7.03;;;23.30;43.60;;;;;;4942178;29;20443;-78
2023/05/02 01:46:53;;;;;;;7.17;6.50;;;23.30;43.80;;;;;;4939951;29;20482;-78
2023/05/02 01:49:21;;;;;;;7.53;6.80;;;23.30;43.80;;;;;;4945365;29;20452;-78
2023/05/02 01:51:49;;;;;;;7.70;7.00;;;23.30;43.90;;;;;;4940634;29;20482;-78
2023/05/02 01:54:18;;;;;;;8.13;6.20;;;23.30;44.00;;;;;;4943729;29;20444;-78
2023/05/02 01:56:46;;;;;;;7.03;6.43;;;23.30;44.00;;;;;;4952686;29;20447;-78
2023/05/02 01:59:15;;;;;;;8.13;6.20;;;23.20;44.00;;;;;;4945042;29;20451;-78
2023/05/02 02:01:43;;;;;;;6.90;6.27;;;23.20;44.10;;;;;;4955604;29;20449;-79
2023/05/02 02:04:13;;;;;;;8.70;6.23;;;23.20;44.20;;;;;;4949499;29;20543;-78
2023/05/02 02:06:44;;;;;;;6.63;6.03;;;23.20;44.30;;;;;;4955620;29;20551;-78
2023/05/02 02:09:13;;;;;;;7.90;6.03;;;23.10;44.20;;;;;;4945044;29;20448;-77
2023/05/02 02:11:44;;;;;;;6.57;5.97;;;23.10;44.20;;;;;;4941464;29;20474;-78
2023/05/02 02:14:14;;;;;;;6.70;5.77;;;23.10;44.30;;;;;;4944285;29;20448;-78
2023/05/02 02:16:42;;;;;;;7.17;5.77;;;23.10;44.30;;;;;;4945074;29;20446;-78
2023/05/02 02:19:11;;;;;;;6.60;6.00;;;23.10;44.50;;;;;;4942143;28;20434;-77
2023/05/02 02:21:41;;;;;;;7.80;5.90;;;23.10;44.50;;;;;;4952446;29;20558;-77
2023/05/02 02:24:09;;;;;;;6.23;5.63;;;23.10;44.50;;;;;;4952062;29;20458;-77
2023/05/02 02:26:37;;;;;;;6.57;5.50;;;23.00;44.60;;;;;;4951205;29;20475;-78
2023/05/02 02:29:05;;;;;;;8.37;5.80;;;23.00;44.50;;;;;;4945945;29;20460;-77
2023/05/02 02:31:33;;;;;;;6.47;5.70;;;23.00;44.60;;;;;;4948411;29;20474;-77
2023/05/02 02:34:02;;;;;;;6.13;5.53;;;23.00;44.70;;;;;;4948286;28;20450;-77
2023/05/02 02:36:33;;;;;;;5.73;5.03;;;22.90;44.50;;;;;;4948535;29;20452;-78
2023/05/02 02:39:10;;;;;;;7.63;5.50;;;22.90;44.70;;;;;;4942374;29;20456;-77
2023/05/02 02:41:40;;;;;;;7.47;5.40;;;22.90;44.70;;;;;;4943530;28;20467;-78
2023/05/02 02:44:13;;;;;;;6.00;4.70;;;22.90;44.70;;;;;;4948756;29;20458;-79
2023/05/02 02:46:46;;;;;;;6.70;5.03;;;22.90;44.80;;;;;;4947216;29;20441;-78
2023/05/02 02:49:20;;;;;;;6.70;5.43;;;22.90;44.70;;;;;;4945018;29;20448;-78
2023/05/02 02:51:53;;;;;;;6.07;4.60;;;22.80;44.60;;;;;;4947019;29;20478;-78
2023/05/02 02:54:32;;;;;;;5.53;4.80;;;22.80;44.70;;;;;;4942491;28;20454;-78
2023/05/02 02:57:02;;;;;;;5.97;5.10;;;22.80;44.80;;;;;;4953792;29;20453;-79
2023/05/02 02:59:33;;;;;;;6.40;5.00;;;22.80;44.90;;;;;;4949693;29;20436;-79
2023/05/02 03:02:03;;;;;;;4.67;4.27;;;22.80;45.00;;;;;;4954357;29;20475;-79
2023/05/02 03:04:32;;;;;;;5.40;4.90;;;22.70;44.90;;;;;;4946258;29;21020;-77
2023/05/02 03:07:00;;;;;;;4.90;4.50;;;22.70;45.10;;;;;;4946861;29;20475;-78
2023/05/02 03:09:40;;;;;;;4.47;4.10;;;22.70;45.10;;;;;;4947693;29;20455;-79
2023/05/02 03:12:07;;;;;;;5.03;4.60;;;22.70;45.20;;;;;;4948846;29;20468;-78
2023/05/02 03:14:35;;;;;;;5.23;4.80;;;22.70;45.00;;;;;;4943699;29;20447;-79
2023/05/02 03:17:04;;;;;;;7.80;5.07;;;22.60;45.20;;;;;;4940368;29;20451;-78
2023/05/02 03:19:32;;;;;;;6.33;4.63;;;22.60;45.20;;;;;;4952074;29;20453;-78
2023/05/02 03:22:00;;;;;;;5.37;4.87;;;22.60;45.20;;;;;;4935051;28;20472;-76
2023/05/02 03:24:28;;;;;;;8.00;4.93;;;22.60;45.10;;;;;;4955129;29;20450;-79
2023/05/02 03:26:57;;;;;;;6.07;4.57;;;22.50;45.20;;;;;;4946874;29;20560;-78
2023/05/02 03:29:25;;;;;;;5.30;4.00;;;22.60;45.40;;;;;;4950649;29;20487;-79
2023/05/02 03:31:53;;;;;;;7.10;5.23;;;22.50;45.30;;;;;;4949423;29;20475;-79
2023/05/02 03:34:22;;;;;;;7.27;5.30;;;22.60;45.40;;;;;;4953061;29;20688;-79
2023/05/02 03:36:49;;;;;;;6.47;5.17;;;22.50;45.40;;;;;;4959931;29;20447;-79
2023/05/02 03:39:17;;;;;;;6.40;5.37;;;22.40;45.30;;;;;;4948408;29;20422;-79
2023/05/02 03:41:45;;;;;;;5.00;4.50;;;22.40;45.30;;;;;;4952356;29;20480;-79
2023/05/02 03:44:15;;;;;;;5.97;5.03;;;22.40;45.50;;;;;;4943456;29;20462;-78
2023/05/02 03:46:43;;;;;;;6.33;4.67;;;22.40;45.50;;;;;;4946975;29;20558;-78
2023/05/02 03:49:12;;;;;;;8.70;5.60;;;22.40;45.50;;;;;;4961214;29;20513;-79
2023/05/02 03:51:40;;;;;;;7.20;4.47;;;22.30;45.60;;;;;;4952941;29;20467;-79
2023/05/02 03:54:08;;;;;;;5.10;4.10;;;22.30;45.60;;;;;;4958106;29;20455;-79
2023/05/02 03:56:37;;;;;;;9.03;4.70;;;22.30;45.60;;;;;;4951967;29;20443;-79
2023/05/02 03:59:06;;;;;;;5.47;4.93;;;22.30;45.50;;;;;;4959908;29;20435;-77
2023/05/02 04:01:35;;;;;;;4.90;4.40;;;22.30;45.60;;;;;;4957756;29;20501;-79
2023/05/02 04:04:04;;;;;;;6.30;4.57;;;22.30;45.40;;;;;;4952744;29;20487;-77
2023/05/02 04:06:32;;;;;;;4.73;4.23;;;22.30;45.60;;;;;;4953339;28;20482;-79
2023/05/02 04:09:00;;;;;;;5.03;4.13;;;22.20;45.60;;;;;;4961684;29;20448;-79
2023/05/02 04:11:28;;;;;;;5.47;3.97;;;22.20;45.50;;;;;;4948239;28;20478;-78
2023/05/02 04:13:56;;;;;;;5.23;4.67;;;22.20;45.60;;;;;;4956631;29;20414;-78
2023/05/02 04:16:24;;;;;;;5.83;4.60;;;22.20;45.60;;;;;;4946809;29;20422;-77
2023/05/02 04:18:54;;;;;;;6.87;4.80;;;22.20;45.40;;;;;;4955281;29;20443;-77
2023/05/02 04:21:22;;;;;;;6.57;5.10;;;22.20;45.50;;;;;;4939293;29;20454;-77
2023/05/02 04:23:49;;;;;;;6.93;4.10;;;22.10;45.50;;;;;;4937028;29;20557;-77
2023/05/02 04:26:17;;;;;;;6.70;4.00;;;22.10;45.60;;;;;;4945568;29;20454;-78
2023/05/02 04:28:45;;;;;;;6.97;4.70;;;22.10;45.40;;;;;;4955222;29;20448;-78
2023/05/02 04:31:13;;;;;;;5.77;4.30;;;22.10;45.60;;;;;;4950782;29;20471;-80
2023/05/02 04:33:41;;;;;;;5.80;4.47;;;22.10;45.50;;;;;;4953748;29;20538;-76
2023/05/02 04:36:11;;;;;;;5.47;4.30;;;22.00;45.60;;;;;;4952143;29;20452;-78
2023/05/02 04:38:39;;;;;;;5.90;3.87;;;22.00;45.60;;;;;;4942099;29;20448;-78
2023/05/02 04:41:07;;;;;;;4.63;3.23;;;22.00;45.50;;;;;;4955245;29;20475;-78
2023/05/02 04:43:36;;;;;;;12.83;4.40;;;22.00;45.60;;;;;;4952502;28;20462;-79
2023/05/02 04:46:05;;;;;;;8.27;4.40;;;22.00;45.60;;;;;;4946985;28;20447;-78
2023/05/02 04:48:33;;;;;;;8.60;4.50;;;22.00;45.50;;;;;;4944248;29;20518;-77
2023/05/02 04:51:01;;;;;;;8.20;3.90;;;22.00;45.70;;;;;;4951460;28;20467;-78
2023/05/02 04:53:31;;;;;;;8.80;5.20;;;21.90;45.50;;;;;;4953628;28;20452;-78
2023/05/02 04:55:59;;;;;;;5.80;3.70;;;21.90;45.50;;;;;;4950733;29;20455;-78
2023/05/02 04:58:27;;;;;;;11.97;4.30;;;21.90;45.50;;;;;;4948847;29;20429;-79
2023/05/02 05:00:55;;;;;;;4.73;3.97;;;21.90;45.60;;;;;;4946109;29;20449;-77
2023/05/02 05:03:23;;;;;;;4.87;3.87;;;22.00;45.50;;;;;;4948665;29;20463;-79
2023/05/02 05:05:51;;;;;;;5.93;3.60;;;21.90;45.60;;;;;;4953569;29;20514;-78
2023/05/02 05:08:19;;;;;;;4.70;3.70;;;21.90;45.30;;;;;;4955209;29;20558;-78
2023/05/02 05:10:48;;;;;;;6.87;4.10;;;21.90;45.60;;;;;;4947590;29;20451;-79
2023/05/02 05:13:16;;;;;;;5.67;4.10;;;21.90;45.60;;;;;;4954545;29;20443;-79
2023/05/02 05:15:44;;;;;;;6.10;3.77;;;21.90;45.60;;;;;;4949399;29;20447;-77
2023/05/02 05:18:12;;;;;;;5.23;4.07;;;21.90;45.60;;;;;;4954009;29;20439;-78
2023/05/02 05:20:40;;;;;;;6.03;3.90;;;21.80;45.40;;;;;;4951429;29;20444;-78
2023/05/02 05:23:08;;;;;;;8.37;4.17;;;21.80;45.60;;;;;;4946235;28;20482;-77
2023/05/02 05:25:36;;;;;;;6.67;4.00;;;21.80;45.60;;;;;;4945860;29;20457;-78
2023/05/02 05:28:06;;;;;;;6.67;3.87;;;21.80;45.50;;;;;;4947147;29;20498;-78
2023/05/02 05:30:34;;;;;;;5.20;3.63;;;21.80;45.50;;;;;;4950364;28;20475;-78
2023/05/02 05:33:02;;;;;;;4.17;3.47;;;21.80;45.50;;;;;;4943316;29;20471;-78
2023/05/02 05:35:30;;;;;;;6.40;3.57;;;21.80;45.50;;;;;;4954392;29;20455;-78
2023/05/02 05:37:58;;;;;;;5.50;3.80;;;21.80;45.70;;;;;;4943982;29;20442;-79
2023/05/02 05:40:27;;;;;;;6.03;3.27;;;21.80;45.70;;;;;;4956304;29;20936;-78
2023/05/02 05:42:55;;;;;;;4.93;3.10;;;21.70;45.60;;;;;;4950957;29;20474;-79
2023/05/02 05:45:25;;;;;;;3.90;3.23;;;21.70;45.50;;;;;;4942951;29;20464;-79
2023/05/02 05:47:54;;;;;;;4.60;3.30;;;21.70;45.60;;;;;;4956747;29;20463;-79
2023/05/02 05:50:22;;;;;;;4.37;3.37;;;21.70;45.80;;;;;;4945744;29;20478;-78
2023/05/02 05:52:50;;;;;;;6.60;3.67;;;21.70;45.70;;;;;;4951476;29;20467;-78
2023/05/02 05:55:18;;;;;;;9.53;3.70;;;21.70;45.60;;;;;;4947411;29;20447;-77
2023/05/02 05:57:46;;;;;;;5.53;3.60;;;21.70;45.50;;;;;;4950676;29;20454;-78
2023/05/02 06:00:15;;;;;;;5.80;3.47;;;21.70;45.60;;;;;;4950104;29;20451;-77
2023/05/02 06:02:45;;;;;;;8.90;4.00;;;21.70;45.70;;;;;;4950401;29;20471;-77
2023/05/02 06:05:13;;;;;;;4.03;3.10;;;21.70;45.80;;;;;;4946310;29;20458;-78
2023/05/02 06:07:41;;;;;;;6.43;3.07;;;21.70;45.60;;;;;;4941045;29;20479;-78
2023/05/02 06:10:10;;;;;;;4.83;3.47;;;21.60;45.70;;;;;;4941018;29;20443;-77
2023/05/02 06:12:38;;;;;;;5.90;3.83;;;21.60;45.60;;;;;;4950558;29;20464;-79
2023/05/02 06:15:06;;;;;;;4.83;3.23;;;21.60;45.50;;;;;;4950787;29;20466;-79
2023/05/02 06:17:34;;;;;;;7.37;3.70;;;21.60;45.60;;;;;;4953558;29;20422;-77
2023/05/02 06:20:05;;;;;;;6.37;3.47;;;21.70;45.50;;;;;;4958454;29;20429;-78
2023/05/02 06:22:33;;;;;;;6.77;3.57;;;21.60;45.50;;;;;;4950588;28;20471;-79
2023/05/02 06:25:01;;;;;;;7.20;3.67;;;21.60;45.60;;;;;;4947904;29;20452;-78
2023/05/02 06:27:29;;;;;;;5.60;3.80;;;21.60;45.40;;;;;;4951854;29;20451;-80
2023/05/02 06:30:00;;;;;;;10.37;3.83;;;21.60;45.40;;;;;;4948519;29;20479;-79
2023/05/02 06:32:30;;;;;;;7.63;3.80;;;21.60;45.30;;;;;;4951615;29;20452;-80
2023/05/02 06:34:58;;;;;;;5.23;3.53;;;21.60;45.40;;;;;;4938968;29;20527;-80
2023/05/02 06:37:28;;;;;;;6.10;3.60;;;21.70;45.40;;;;;;4949734;29;20451;-81
2023/05/02 06:39:56;;;;;;;5.53;3.50;;;21.70;45.30;;;;;;4955955;29;20514;-79
2023/05/02 06:42:24;;;;;;;6.07;3.27;;;21.70;45.10;;;;;;4942480;29;20830;-80
2023/05/02 06:44:53;;;;;;;6.07;2.87;;;21.70;45.20;;;;;;4952236;29;20447;-82
2023/05/02 06:47:21;;;;;;;9.03;3.70;;;21.70;45.00;;;;;;4950969;29;20452;-82
2023/05/02 06:49:50;;;;;;;6.93;3.60;;;21.70;45.00;;;;;;4950693;29;20475;-81
2023/05/02 06:52:18;;;;;;;5.63;3.20;;;21.70;45.00;;;;;;4961046;29;20483;-82
2023/05/02 06:54:47;;;;;;;5.40;3.30;;;21.80;44.90;;;;;;4953679;29;20452;-82
2023/05/02 06:57:16;;;;;;;5.87;3.40;;;21.80;44.70;;;;;;4947991;29;20446;-81
2023/05/02 06:59:44;;;;;;;5.07;3.80;;;21.80;44.60;;;;;;4951276;29;20444;-82
2023/05/02 07:02:12;;;;;;;5.60;3.30;;;21.90;44.70;;;;;;4948049;29;20467;-81
2023/05/02 07:04:40;;;;;;;6.30;3.63;;;21.90;44.60;;;;;;4945855;29;20476;-80
2023/05/02 07:07:08;;;;;;;5.97;2.90;;;21.90;44.60;;;;;;4958635;29;20458;-80
2023/05/02 07:09:37;;;;;;;5.20;3.70;;;21.90;44.60;;;;;;4965143;29;20481;-80
2023/05/02 07:12:06;;;;;;;3.37;3.10;;;21.90;44.40;;;;;;4953114;28;20467;-80
2023/05/02 07:14:34;;;;;;;7.43;3.43;;;21.90;44.40;;;;;;4952597;29;20450;-81
2023/05/02 07:17:02;;;;;;;4.30;3.30;;;21.90;44.40;;;;;;4952739;29;20457;-80
2023/05/02 07:19:30;;;;;;;5.40;3.70;;;21.90;44.40;;;;;;4954169;29;20450;-81
2023/05/02 07:21:58;;;;;;;6.03;3.47;;;21.90;44.60;;;;;;4955902;29;20470;-80
2023/05/02 07:24:26;;;;;;;6.93;2.97;;;21.90;44.40;;;;;;4954953;29;20451;-78
2023/05/02 07:26:54;;;;;;;7.67;3.73;;;21.90;44.40;;;;;;4951843;29;20451;-80
2023/05/02 07:29:24;;;;;;;9.03;3.30;;;21.90;44.30;;;;;;4958638;29;20510;-79
2023/05/02 07:31:52;;;;;;;4.07;3.07;;;21.90;44.30;;;;;;4951178;29;20478;-80
2023/05/02 07:34:20;;;;;;;3.70;2.80;;;22.00;44.50;;;;;;4956821;29;20466;-80
2023/05/02 07:36:48;;;;;;;5.33;3.53;;;22.00;44.10;;;;;;4963826;29;20832;-80
2023/05/02 07:39:16;;;;;;;5.67;3.60;;;22.10;44.10;;;;;;4948902;29;20446;-80
2023/05/02 07:41:44;;;;;;;6.83;3.13;;;22.20;44.10;;;;;;4960951;29;20570;-80
2023/05/02 07:44:13;;;;;;;4.20;3.20;;;22.20;44.10;;;;;;4952080;28;20453;-79
2023/05/02 07:46:42;;;;;;;3.60;3.30;;;22.30;43.90;;;;;;4953687;29;20503;-80
2023/05/02 07:49:11;;;;;;;3.67;2.83;;;22.40;43.80;;;;;;4946574;29;20486;-81
2023/05/02 07:51:39;;;;;;;4.60;3.23;;;22.50;43.70;;;;;;4956716;29;20495;-81
2023/05/02 07:54:15;;;;;;;6.53;3.20;;;22.60;43.70;;;;;;4949337;29;20518;-79
2023/05/02 07:56:43;;;;;;;5.83;3.10;;;22.70;43.60;;;;;;4948300;29;20447;-79
2023/05/02 07:59:11;;;;;;;5.67;3.47;;;22.70;43.40;;;;;;4951297;29;20440;-77
2023/05/02 08:01:40;;;;;;;4.30;2.93;;;22.80;43.50;;;;;;4952325;29;20482;-80
2023/05/02 08:04:17;;;;;;;5.23;3.50;;;22.80;43.10;;;;;;4957471;29;20538;-80
2023/05/02 08:06:45;;;;;;;2.97;2.67;;;22.80;43.30;;;;;;4966856;29;20449;-79
2023/05/02 08:09:18;;;;;;;5.47;3.40;;;22.70;43.10;;;;;;4966226;29;20491;-80
2023/05/02 08:11:46;;;;;;;2.87;2.63;;;22.70;43.20;;;;;;4960440;28;20555;-80
2023/05/02 08:14:15;;;;;;;8.40;3.00;;;22.80;43.30;;;;;;4958113;29;20451;-81
2023/05/02 08:16:43;;;;;;;7.53;3.17;;;22.80;43.20;;;;;;4954583;29;20451;-79
2023/05/02 08:19:15;;;;;;;4.17;3.10;;;22.90;43.30;;;;;;4962033;29;20429;-79
2023/05/02 08:21:43;;;;;;;5.17;3.00;;;23.00;43.40;;;;;;4964052;28;20501;-79
2023/05/02 08:24:11;;;;;;;9.43;2.60;;;23.10;43.30;;;;;;4961246;29;20526;-80
2023/05/02 08:26:39;;;;;;;5.67;3.20;;;23.20;43.20;;;;;;4960145;29;20956;-79
2023/05/02 08:29:10;;;;;;;4.30;2.90;;;23.30;43.10;;;;;;4946442;29;20476;-79
2023/05/02 08:31:41;;;;;;;5.83;3.23;;;23.40;43.00;;;;;;4941216;29;20472;-79
2023/05/02 08:34:10;;;;;;;4.60;2.97;;;23.40;42.90;;;;;;4957495;29;20455;-80
2023/05/02 08:36:39;;;;;;;2.90;2.70;;;23.40;42.80;;;;;;4948281;29;20426;-78
2023/05/02 08:39:08;;;;;;;3.20;2.90;;;23.40;42.70;;;;;;4952299;29;20487;-79
2023/05/02 08:41:36;;;;;;;4.70;3.20;;;23.30;42.80;;;;;;4915812;29;1155205;-78
2023/05/02 08:44:06;;;;;;;4.40;3.07;;;23.20;42.80;;;;;;4952456;29;20268;-80
2023/05/02 08:46:35;;;;;;;4.80;3.20;;;23.20;43.00;;;;;;4950034;29;20458;-77
2023/05/02 08:49:03;;;;;;;5.40;3.40;;;23.10;42.80;;;;;;4949499;29;20490;-75
2023/05/02 08:51:32;;;;;;;4.77;3.00;;;23.10;43.00;;;;;;4946625;29;20471;-77
2023/05/02 08:54:02;;;;;;;4.50;3.10;;;23.10;43.00;;;;;;4947330;29;20459;-78
2023/05/02 08:56:30;;;;;;;4.27;2.90;;;23.20;43.10;;;;;;4954051;29;20536;-79
2023/05/02 08:58:58;;;;;;;6.00;2.70;;;23.30;43.20;;;;;;4946288;29;20482;-79
2023/05/02 09:01:30;;;;;;;5.17;3.50;;;23.50;43.10;;;;;;4952185;29;20478;-78
2023/05/02 09:03:58;;;;;;;5.60;3.27;;;23.70;43.00;;;;;;4960206;29;20478;-78
2023/05/02 09:06:28;;;;;;;4.73;3.43;;;23.70;42.80;;;;;;4947299;29;20463;-79
2023/05/02 09:08:59;;;;;;;4.40;3.50;;;23.80;42.70;;;;;;4952595;29;20947;-79
2023/05/02 09:11:28;;;;;;;6.73;3.77;;;23.80;42.60;;;;;;4946023;28;20490;-78
2023/05/02 09:13:57;;;;;;;5.60;3.63;;;23.80;42.40;;;;;;4938623;29;20432;-76
2023/05/02 09:16:26;;;;;;;6.03;3.77;;;23.80;42.50;;;;;;4940857;28;20462;-77
2023/05/02 09:18:55;;;;;;;4.60;3.47;;;23.80;42.40;;;;;;4942581;29;20456;-77
2023/05/02 09:21:24;;;;;;;4.73;4.00;;;23.80;42.60;;;;;;4950084;29;20467;-76
2023/05/02 09:23:53;;;;;;;6.33;4.40;;;23.90;42.50;;;;;;4954885;29;20454;-77
2023/05/02 09:26:22;;;;;;;9.80;4.60;;;23.90;42.50;;;;;;4947825;29;20449;-79
2023/05/02 09:28:52;;;;;;;3.87;3.50;;;23.90;42.50;;;;;;4951818;29;20447;-77
2023/05/02 09:31:21;;;;;;;5.50;3.80;;;23.90;42.40;;;;;;4939359;29;20441;-79
2023/05/02 09:34:09;;;;;;;4.00;3.53;;;23.90;42.30;;;;;;4945705;29;20403;-77
2023/05/02 09:36:39;;;;;;;6.00;4.23;;;23.90;42.60;;;;;;4941035;29;20441;-80
2023/05/02 09:39:10;;;;;;;4.00;3.60;;;24.00;42.50;;;;;;4949857;29;20460;-77
2023/05/02 09:41:40;;;;;;;4.83;3.53;;;24.10;42.80;;;;;;4953417;29;20457;-77
2023/05/02 09:44:11;;;;;;;2.80;2.60;;;24.30;42.70;;;;;;4943406;29;20475;-77
2023/05/02 09:46:43;;;;;;;7.10;2.63;;;24.60;44.00;;;;;;4946356;29;20480;-77
2023/05/02 09:49:11;;;;;;;4.00;2.60;;;25.00;43.90;;;;;;4954108;29;20458;-77
2023/05/02 09:51:39;;;;;;;5.73;3.13;;;25.30;43.40;;;;;;4954058;28;20474;-78
2023/05/02 09:54:06;;;;;;;4.20;2.70;;;25.50;42.80;;;;;;4938014;28;20423;-77
2023/05/02 09:56:51;;;;;;;8.13;3.00;;;25.60;42.50;;;;;;4949176;29;20512;-78
2023/05/02 09:59:22;;;;;;;5.57;2.20;;;25.50;42.20;;;;;;4938324;29;20427;-78
2023/05/02 10:01:56;;;;;;;7.23;2.83;;;25.50;42.30;;;;;;4940416;28;20463;-77
2023/05/02 10:04:25;;;;;;;5.37;2.60;;;25.40;42.00;;;;;;4937072;29;20521;-78
2023/05/02 10:06:53;;;;;;;3.90;2.40;;;25.40;42.30;;;;;;4949300;29;20447;-78
2023/05/02 10:09:22;;;;;;;4.57;2.50;;;25.40;42.20;;;;;;4936501;28;20454;-78
2023/05/02 10:11:52;;;;;;;7.70;2.30;;;25.50;42.10;;;;;;4940983;29;20482;-77
2023/05/02 10:14:24;;;;;;;5.70;2.40;;;25.60;41.90;;;;;;4950031;29;20432;-77
2023/05/02 10:17:00;;;;;;;8.33;2.40;;;25.70;41.70;;;;;;4952007;29;20451;-78
2023/05/02 10:19:30;;;;;;;5.93;2.80;;;25.80;41.50;;;;;;4943868;28;20455;-77
2023/05/02 10:21:58;;;;;;;3.73;2.60;;;25.90;41.50;;;;;;4940660;29;20450;-78
2023/05/02 10:24:26;;;;;;;4.13;2.27;;;26.10;41.80;;;;;;4940145;29;20464;-78
2023/05/02 10:26:55;;;;;;;6.30;2.57;;;26.40;41.40;;;;;;4947181;29;20429;-77
2023/05/02 10:29:24;;;;;;;2.73;2.40;;;26.60;40.60;;;;;;4941930;29;20539;-77
2023/05/02 10:31:53;;;;;;;4.47;2.27;;;26.60;40.00;;;;;;4947992;29;20479;-78
2023/05/02 10:34:21;;;;;;;2.67;2.30;;;26.50;40.00;;;;;;4936222;29;20426;-78
2023/05/02 10:36:49;;;;;;;6.60;2.80;;;26.30;40.10;;;;;;4953803;29;20432;-76
2023/05/02 10:39:18;;;;;;;6.73;2.57;;;26.20;40.20;;;;;;4952011;28;20455;-77
2023/05/02 10:41:46;;;;;;;4.87;2.43;;;26.00;40.30;;;;;;4947801;29;20481;-78
2023/05/02 10:44:14;;;;;;;4.37;2.10;;;25.90;40.50;;;;;;4949946;28;20452;-77
2023/05/02 10:46:44;;;;;;;5.27;1.80;;;25.80;40.70;;;;;;4941206;29;20448;-78
2023/05/02 10:49:13;;;;;;;2.40;2.20;;;25.70;40.80;;;;;;4955896;29;20493;-77
2023/05/02 10:51:42;;;;;;;2.60;2.30;;;25.70;40.90;;;;;;4950410;29;20456;-78
2023/05/02 10:54:19;;;;;;;3.70;2.00;;;25.70;40.90;;;;;;4950909;29;20425;-77
2023/05/02 10:57:11;;;;;;;4.80;2.43;;;25.70;40.90;;;;;;4939314;29;20422;-78
2023/05/02 10:59:39;;;;;;;2.60;2.23;;;25.70;40.80;;;;;;4943141;28;20424;-76
2023/05/02 11:02:48;;;;;;;4.37;2.30;;;25.70;40.80;;;;;;4950802;29;20473;-76
2023/05/02 11:05:16;;;;;;;3.27;2.10;;;25.60;41.10;;;;;;4953286;29;20418;-76
2023/05/02 11:07:45;;;;;;;6.73;2.43;;;25.60;41.00;;;;;;4947339;29;20453;-78
2023/05/02 11:10:26;;;;;;;2.27;2.07;;;25.50;41.20;;;;;;4947269;29;20482;-77
2023/05/02 11:12:54;;;;;;;2.93;2.13;;;25.40;41.20;;;;;;4947203;29;20452;-77
2023/05/02 11:15:56;;;;;;;2.60;2.40;;;25.40;41.50;;;;;;4957814;29;20428;-77
2023/05/02 11:18:28;;;;;;;2.50;2.13;;;25.40;41.50;;;;;;4923308;28;20447;-76
2023/05/02 11:21:26;;;;;;;3.13;2.23;;;25.50;41.40;;;;;;4946185;29;20439;-77
2023/05/02 11:24:27;;;;;;;2.47;2.20;;;25.60;41.60;;;;;;4940760;29;20447;-79
2023/05/02 11:27:11;;;;;;;2.90;2.17;;;25.60;41.40;;;;;;4951592;29;20449;-76
2023/05/02 11:29:51;;;;;;;5.17;2.10;;;25.80;41.30;;;;;;4952382;29;20517;-78
2023/05/02 11:32:21;;;;;;;3.03;2.20;;;26.00;40.90;;;;;;4955738;29;20474;-77
2023/05/02 11:34:54;;;;;;;5.10;2.17;;;26.10;40.60;;;;;;4947736;29;20543;-76
2023/05/02 11:37:22;;;;;;;12.23;2.57;;;26.10;40.70;;;;;;4953524;29;20505;-77
2023/05/02 11:39:50;;;;;;;9.03;2.50;;;26.00;40.70;;;;;;4956805;28;20429;-76
2023/05/02 11:42:31;;;;;;;5.23;2.60;;;25.90;40.70;;;;;;4951336;29;20453;-76
2023/05/02 11:44:59;;;;;;;3.77;2.10;;;25.90;40.80;;;;;;4952882;29;20425;-76
2023/05/02 11:47:28;;;;;;;4.67;2.10;;;25.80;40.70;;;;;;4956915;28;20426;-76
2023/05/02 11:49:58;;;;;;;3.23;2.10;;;25.80;40.90;;;;;;4954420;28;20426;-76
2023/05/02 11:52:26;;;;;;;6.80;2.03;;;25.70;40.90;;;;;;4945754;28;20543;-76
2023/05/02 11:54:55;;;;;;;2.47;2.27;;;25.70;41.00;;;;;;4947584;28;20426;-75
2023/05/02 11:57:24;;;;;;;2.73;1.87;;;25.80;41.00;;;;;;4952838;29;20455;-76
2023/05/02 11:59:52;;;;;;;7.53;2.40;;;25.80;40.90;;;;;;4947691;29;20426;-76
2023/05/02 12:02:21;;;;;;;9.23;2.23;;;26.30;41.70;;;;;;4954845;29;20442;-76
2023/05/02 12:04:49;;;;;;;3.63;2.27;;;26.50;39.90;;;;;;4956273;29;20451;-76
2023/05/02 12:07:18;;;;;;;2.50;2.30;;;26.40;39.80;;;;;;4943698;29;20431;-76
2023/05/02 12:09:53;;;;;;;2.23;2.03;;;26.30;40.00;;;;;;4955905;29;20406;-76
2023/05/02 12:12:21;;;;;;;5.23;2.03;;;26.10;40.20;;;;;;4948114;29;20453;-76
2023/05/02 12:14:49;;;;;;;2.70;2.23;;;25.90;40.60;;;;;;4950251;29;20451;-76
2023/05/02 12:17:17;;;;;;;2.70;2.50;;;25.90;40.60;;;;;;4948274;29;20478;-76
2023/05/02 12:19:47;;;;;;;2.80;2.20;;;25.80;40.60;;;;;;4955114;29;20425;-75
2023/05/02 12:22:15;;;;;;;3.17;2.43;;;25.70;40.80;;;;;;4954045;28;20432;-76
2023/05/02 12:24:45;;;;;;;5.90;1.90;;;25.70;40.90;;;;;;4953678;29;20451;-76
2023/05/02 12:27:14;;;;;;;3.03;2.37;;;25.60;40.70;;;;;;4952605;28;20518;-76
2023/05/02 12:29:42;;;;;;;2.50;2.23;;;25.60;40.90;;;;;;4954276;29;20609;-77
2023/05/02 12:32:10;;;;;;;2.63;1.80;;;25.50;40.90;;;;;;4952946;29;20486;-77
2023/05/02 12:34:38;;;;;;;8.70;2.37;;;25.50;41.10;;;;;;4945149;29;20556;-77
2023/05/02 12:37:06;;;;;;;6.13;2.50;;;25.40;40.90;;;;;;4948683;29;20459;-77
2023/05/02 12:39:35;;;;;;;4.50;2.40;;;25.50;41.20;;;;;;4949237;29;20437;-76
2023/05/02 12:42:11;;;;;;;2.40;1.83;;;25.60;41.00;;;;;;4949287;29;20451;-76
2023/05/02 12:44:40;;;;;;;3.90;2.00;;;26.40;42.40;;;;;;4938889;29;20460;-76
2023/05/02 12:47:08;;;;;;;2.43;2.30;;;26.80;39.60;;;;;;4954196;29;20429;-76
2023/05/02 12:49:48;;;;;;;2.20;2.10;;;27.30;40.50;;;;;;4944055;29;20427;-77
2023/05/02 12:52:17;;;;;;;2.90;2.60;;;27.60;38.10;;;;;;4948182;29;20452;-76
2023/05/02 12:54:45;;;;;;;5.43;1.70;;;27.50;38.00;;;;;;4949556;29;20443;-77
2023/05/02 12:57:24;;;;;;;2.80;1.60;;;27.30;38.20;;;;;;4951341;29;20417;-76
2023/05/02 12:59:53;;;;;;;3.93;1.70;;;27.10;38.50;;;;;;4950061;29;20802;-76